Time;durP1;ratioP1;P1;durP2;ratioP2;P2;SDS_P1;SDS_P2;PMS_P1;PMS_P2;Temp;Humidity;BMP_temperature;BMP_pressure;BME280_temperature;BME280_humidity;BME280_pressure;Samples;Min_cycle;Max_cycle;Signal;HPM_P1;HPM_P2
2023/04/13 00:01:10;;;;;;;;;17.25;13.75;;;;;2.41;100.00;97263.47;4848000;28;101690;-70
2023/04/13 00:03:37;;;;;;;;;13.75;11.50;;;;;2.48;100.00;97282.22;4849835;28;101763;-71
2023/04/13 00:06:13;;;;;;;;;10.00;10.00;;;;;2.51;100.00;97274.72;4853071;28;101935;-71
2023/04/13 00:08:59;;;;;;;;;10.50;7.50;;;;;2.46;100.00;97263.75;4851422;28;106859;-71
2023/04/13 00:11:52;;;;;;;;;11.00;6.00;;;;;2.45;100.00;97259.44;4846563;28;101632;-71
2023/04/13 00:14:36;;;;;;;;;11.50;10.25;;;;;2.41;100.00;97271.47;4846239;28;101626;-71
2023/04/13 00:17:23;;;;;;;;;20.50;18.00;;;;;2.41;100.00;97276.81;4855182;28;101574;-71
2023/04/13 00:20:13;;;;;;;;;15.25;13.25;;;;;2.18;100.00;97241.38;4513898;28;10001106;-70
2023/04/13 00:22:58;;;;;;;;;20.50;16.50;;;;;2.37;100.00;97270.19;4847593;28;106911;-70
2023/04/13 00:25:35;;;;;;;;;26.25;21.75;;;;;2.35;100.00;97271.38;4847000;28;101667;-71
2023/04/13 00:28:02;;;;;;;;;17.50;14.00;;;;;2.34;100.00;97262.56;4851793;28;102528;-71
2023/04/13 00:30:29;;;;;;;;;36.75;26.00;;;;;2.25;100.00;97255.66;4854781;28;102034;-71
2023/04/13 00:32:56;;;;;;;;;34.00;29.75;;;;;2.26;100.00;97267.94;4842101;28;103381;-71
2023/04/13 00:35:26;;;;;;;;;50.67;37.33;;;;;2.16;100.00;97257.53;4849074;28;101849;-71
2023/04/13 00:37:53;;;;;;;;;16.33;14.00;;;;;2.19;100.00;97261.69;4850774;28;101787;-71
2023/04/13 00:40:20;;;;;;;;;35.67;28.33;;;;;2.07;100.00;97249.81;4853759;28;101757;-71
2023/04/13 00:42:49;;;;;;;;;47.00;36.33;;;;;2.03;100.00;97251.16;4848753;28;107986;-71
2023/04/13 00:45:17;;;;;;;;;33.67;31.00;;;;;2.11;100.00;97262.63;4850105;28;101591;-70
2023/04/13 00:47:45;;;;;;;;;34.67;27.00;;;;;2.18;100.00;97260.03;4848711;28;101609;-71
2023/04/13 00:50:13;;;;;;;;;14.75;14.75;;;;;2.18;100.00;97252.88;4854245;28;102026;-70
2023/04/13 00:52:41;;;;;;;;;10.50;7.00;;;;;2.22;100.00;97256.81;4846199;28;103476;-70
2023/04/13 00:55:08;;;;;;;;;35.25;22.25;;;;;2.09;100.00;97250.47;4847342;28;101748;-70
2023/04/13 00:57:39;;;;;;;;;30.50;22.50;;;;;2.06;100.00;97256.16;4848014;28;101915;-70
2023/04/13 01:00:08;;;;;;;;;25.75;20.50;;;;;2.02;100.00;97249.53;4850266;28;102080;-71
2023/04/13 01:02:40;;;;;;;;;37.67;29.67;;;;;1.91;100.00;97252.63;4848305;28;102634;-70
2023/04/13 01:05:11;;;;;;;;;29.33;28.00;;;;;1.83;100.00;97250.88;4843025;28;101836;-70
2023/04/13 01:08:27;;;;;;;;;33.33;24.00;;;;;1.87;100.00;97256.66;4848464;28;101960;-70
2023/04/13 01:11:46;;;;;;;;;18.25;16.25;;;;;1.84;100.00;97251.69;4849483;28;102350;-70
2023/04/13 01:14:54;;;;;;;;;15.50;13.50;;;;;1.83;100.00;97252.69;4843725;28;106847;-70
2023/04/13 01:17:40;;;;;;;;;32.67;25.33;;;;;1.74;100.00;97263.44;4845430;28;101755;-71
2023/04/13 01:20:42;;;;;;;;;31.00;25.00;;;;;1.75;100.00;97258.94;4846438;28;101995;-70
2023/04/13 01:23:47;;;;;;;;;26.00;24.00;;;;;1.80;100.00;97257.34;4849617;28;102041;-70
2023/04/13 01:26:21;;;;;;;;;24.33;21.67;;;;;1.88;100.00;97269.81;4845929;28;106895;-70
2023/04/13 01:28:50;;;;;;;;;23.50;19.00;;;;;1.93;100.00;97271.94;4850955;28;101597;-70
2023/04/13 01:31:18;;;;;;;;;16.50;13.00;;;;;1.86;100.00;97262.97;4852318;28;103730;-70
2023/04/13 01:33:46;;;;;;;;;13.75;10.75;;;;;2.03;100.00;97277.81;4850940;28;102135;-70
2023/04/13 01:36:14;;;;;;;;;9.50;5.50;;;;;2.02;100.00;97279.69;4846424;28;103482;-70
2023/04/13 01:38:42;;;;;;;;;6.75;5.50;;;;;2.05;100.00;97283.81;4845561;28;101899;-70
2023/04/13 01:41:09;;;;;;;;;33.33;26.00;;;;;1.93;100.00;97278.09;4851013;28;102016;-71
2023/04/13 01:43:36;;;;;;;;;30.67;24.67;;;;;1.93;100.00;97282.59;4851635;28;101719;-70
2023/04/13 01:46:10;;;;;;;;;23.67;17.00;;;;;1.95;100.00;97277.91;4845203;28;103213;-71
2023/04/13 01:48:50;;;;;;;;;46.00;37.00;;;;;1.75;100.00;97278.41;4846959;28;102047;-70
2023/04/13 01:51:21;;;;;;;;;66.67;49.33;;;;;1.65;100.00;97275.16;4852942;28;102052;-71
2023/04/13 01:53:53;;;;;;;;;60.67;47.00;;;;;1.63;100.00;97274.47;4854522;28;101915;-70
2023/04/13 01:56:21;;;;;;;;;57.67;46.33;;;;;1.59;100.00;97270.53;4846766;28;107941;-71
2023/04/13 01:58:55;;;;;;;;;56.67;40.33;;;;;1.73;100.00;97275.09;4848605;28;102111;-70
2023/04/13 02:01:22;;;;;;;;;39.67;29.67;;;;;1.81;100.00;97274.19;4848055;28;101909;-71
2023/04/13 02:03:50;;;;;;;;;37.00;28.33;;;;;1.89;100.00;97262.66;4852814;28;102094;-71
2023/04/13 02:06:18;;;;;;;;;17.25;16.50;;;;;1.97;100.00;97273.22;4844656;28;108314;-71
2023/04/13 02:08:45;;;;;;;;;11.25;10.25;;;;;2.06;100.00;97272.16;4848091;28;101729;-70
2023/04/13 02:11:12;;;;;;;;;18.25;16.25;;;;;2.15;100.00;97281.75;4849569;28;101638;-70
2023/04/13 02:13:39;;;;;;;;;31.67;28.00;;;;;2.09;100.00;97274.44;4851834;28;101537;-70
2023/04/13 02:16:06;;;;;;;;;30.00;27.00;;;;;2.11;100.00;97273.28;4847581;28;103631;-70
2023/04/13 02:18:34;;;;;;;;;35.00;30.33;;;;;2.14;100.00;97280.91;4846132;28;103016;-70
2023/04/13 02:21:08;;;;;;;;;35.00;31.00;;;;;2.23;100.00;97276.31;4848731;28;101588;-71
2023/04/13 02:23:36;;;;;;;;;45.00;35.67;;;;;2.25;100.00;97268.97;4849711;28;102113;-69
2023/04/13 02:26:06;;;;;;;;;42.67;35.33;;;;;2.30;100.00;97269.25;4848604;28;103297;-70
2023/04/13 02:28:33;;;;;;;;;48.67;40.33;;;;;2.29;100.00;97259.59;4844056;28;102516;-70
2023/04/13 02:31:02;;;;;;;;;40.00;30.33;;;;;2.40;100.00;97255.66;4850367;28;101759;-70
2023/04/13 02:33:30;;;;;;;;;27.25;22.75;;;;;2.45;100.00;97246.09;4855160;28;101663;-70
2023/04/13 02:35:58;;;;;;;;;28.00;23.75;;;;;2.62;100.00;97258.22;4846617;28;103351;-70
2023/04/13 02:38:27;;;;;;;;;18.75;14.75;;;;;2.71;100.00;97256.28;4845287;28;101606;-70
2023/04/13 02:40:55;;;;;;;;;17.75;16.00;;;;;2.76;100.00;97248.56;4848023;28;101747;-70
2023/04/13 02:43:22;;;;;;;;;23.25;18.25;;;;;2.76;100.00;97235.22;4852043;28;103445;-71
2023/04/13 02:45:49;;;;;;;;;18.00;18.00;;;;;2.51;100.00;97180.50;4851439;28;107882;-70
2023/04/13 02:48:16;;;;;;;;;18.75;13.00;;;;;2.84;100.00;97236.94;4847791;28;102235;-70
2023/04/13 02:50:43;;;;;;;;;16.75;13.75;;;;;2.85;100.00;97236.78;4842989;28;101713;-71
2023/04/13 02:53:09;;;;;;;;;14.00;10.50;;;;;2.86;100.00;97237.59;4853081;28;102477;-71
2023/04/13 02:55:37;;;;;;;;;15.50;14.50;;;;;2.86;100.00;97237.59;4851982;28;103539;-70
2023/04/13 02:58:05;;;;;;;;;10.25;10.00;;;;;2.83;100.00;97256.66;4849086;28;101742;-71
2023/04/13 03:00:32;;;;;;;;;41.00;32.67;;;;;2.69;100.00;97242.31;4844981;28;101666;-70
2023/04/13 03:03:02;;;;;;;;;46.67;38.00;;;;;2.70;100.00;97246.66;4849412;28;101500;-70
2023/04/13 03:05:32;;;;;;;;;44.67;38.33;;;;;2.61;100.00;97245.09;4850403;28;105990;-71
2023/04/13 03:07:59;;;;;;;;;51.00;44.00;;;;;2.56;100.00;97253.66;4850394;28;101663;-71
2023/04/13 03:10:26;;;;;;;;;43.33;40.00;;;;;2.61;100.00;97251.22;4846375;28;101453;-71
2023/04/13 03:12:53;;;;;;;;;42.67;37.00;;;;;2.53;100.00;97242.50;4852490;28;101692;-70
2023/04/13 03:15:20;;;;;;;;;32.33;28.67;;;;;2.67;100.00;97244.34;4854473;28;103411;-70
2023/04/13 03:17:47;;;;;;;;;60.00;46.33;;;;;2.57;100.00;97249.94;4856673;28;101968;-72
2023/04/13 03:20:15;;;;;;;;;51.33;42.33;;;;;2.55;100.00;97245.81;4848378;28;101761;-71
2023/04/13 03:22:43;;;;;;;;;40.67;33.67;;;;;2.63;100.00;97243.06;4850193;28;101839;-71
2023/04/13 03:25:11;;;;;;;;;37.00;29.67;;;;;2.72;100.00;97241.13;4851987;28;103524;-71
2023/04/13 03:27:38;;;;;;;;;74.33;58.00;;;;;2.49;100.00;97233.22;4855086;28;101996;-71
2023/04/13 03:30:06;;;;;;;;;60.00;48.67;;;;;2.58;100.00;97248.94;4852793;28;101741;-71
2023/04/13 03:32:33;;;;;;;;;54.67;45.00;;;;;2.64;100.00;97240.22;4845699;28;106840;-71
2023/04/13 03:35:00;;;;;;;;;41.33;38.33;;;;;2.75;100.00;97246.09;4847230;28;103355;-71
2023/04/13 03:37:31;;;;;;;;;37.33;31.00;;;;;2.82;100.00;97237.16;4850813;28;101774;-71
2023/04/13 03:39:58;;;;;;;;;36.00;24.67;;;;;2.86;100.00;97240.28;4847490;28;103386;-71
2023/04/13 03:42:25;;;;;;;;;25.00;23.00;;;;;2.91;100.00;97240.53;4847067;28;102028;-71
2023/04/13 03:44:52;;;;;;;;;20.75;18.00;;;;;2.90;100.00;97229.03;4856881;28;103441;-71
2023/04/13 03:47:19;;;;;;;;;13.00;13.00;;;;;2.92;100.00;97236.88;4851497;28;102055;-71
2023/04/13 03:49:46;;;;;;;;;14.00;13.25;;;;;2.92;100.00;97240.38;4853290;28;101534;-72
2023/04/13 03:52:13;;;;;;;;;15.75;13.75;;;;;2.89;100.00;97248.72;4512047;28;10001585;-71
2023/04/13 03:54:40;;;;;;;;;7.75;7.75;;;;;2.88;100.00;97248.94;4853464;28;101564;-71
2023/04/13 03:57:07;;;;;;;;;11.75;9.50;;;;;2.85;100.00;97244.78;4852419;28;103462;-71
2023/04/13 03:59:34;;;;;;;;;14.00;13.50;;;;;2.76;100.00;97253.06;4854040;28;102571;-71
2023/04/13 04:02:01;;;;;;;;;49.67;38.00;;;;;2.62;100.00;97250.22;4848369;28;101871;-71
2023/04/13 04:04:28;;;;;;;;;58.00;42.67;;;;;2.39;100.00;97224.63;4848564;28;102021;-71
2023/04/13 04:06:56;;;;;;;;;45.33;38.00;;;;;2.57;100.00;97249.13;4851712;28;103107;-70
2023/04/13 04:09:24;;;;;;;;;42.67;36.67;;;;;2.54;100.00;97247.66;4852054;28;102014;-71
2023/04/13 04:11:51;;;;;;;;;53.00;41.00;;;;;2.47;100.00;97253.91;4853270;28;102195;-70
2023/04/13 04:14:19;;;;;;;;;37.33;33.00;;;;;2.55;100.00;97252.00;4849427;28;101708;-71
2023/04/13 04:16:46;;;;;;;;;32.67;27.33;;;;;2.62;100.00;97263.56;4853260;28;103377;-71
2023/04/13 04:19:13;;;;;;;;;28.50;24.25;;;;;2.67;100.00;97250.50;4852682;28;102584;-71
2023/04/13 04:21:43;;;;;;;;;27.75;21.00;;;;;2.72;100.00;97257.97;4850794;28;102276;-71
2023/04/13 04:24:11;;;;;;;;;55.67;42.33;;;;;2.62;100.00;97260.91;4849509;28;101854;-71
2023/04/13 04:26:39;;;;;;;;;42.00;34.33;;;;;2.72;100.00;97265.97;4850216;28;103352;-71
2023/04/13 04:29:07;;;;;;;;;44.33;37.33;;;;;2.80;100.00;97270.38;4853939;28;101846;-71
2023/04/13 04:31:42;;;;;;;;;46.33;39.33;;;;;2.83;100.00;97262.00;4849380;28;102003;-71
2023/04/13 04:34:10;;;;;;;;;52.67;41.33;;;;;2.73;100.00;97250.78;4847357;28;102322;-71
2023/04/13 04:36:40;;;;;;;;;58.00;41.33;;;;;2.89;100.00;97255.91;4848185;28;103299;-70
2023/04/13 04:39:08;;;;;;;;;40.67;36.33;;;;;3.05;100.00;97261.06;4848666;28;103116;-72
2023/04/13 04:41:36;;;;;;;;;46.67;42.00;;;;;3.04;100.00;97251.38;4851473;28;101527;-70
2023/04/13 04:44:06;;;;;;;;;54.00;40.33;;;;;3.06;100.00;97244.03;4847685;28;101853;-70
2023/04/13 04:46:37;;;;;;;;;44.67;35.67;;;;;3.30;100.00;97251.69;4851615;28;103465;-69
2023/04/13 04:49:04;;;;;;;;;41.00;33.33;;;;;3.39;100.00;97250.56;4853746;28;102121;-70
2023/04/13 04:51:32;;;;;;;;;41.00;36.67;;;;;3.60;100.00;97253.25;4855206;28;101575;-70
2023/04/13 04:54:00;;;;;;;;;32.25;27.75;;;;;3.74;100.00;97246.19;4856159;28;101836;-70
2023/04/13 04:56:28;;;;;;;;;25.00;21.75;;;;;3.87;100.00;97253.53;4850289;28;105988;-70
2023/04/13 04:58:55;;;;;;;;;20.25;15.75;;;;;3.94;100.00;97246.38;4852917;28;102587;-70
2023/04/13 05:01:25;;;;;;;;;28.75;20.00;;;;;4.03;100.00;97247.88;4850823;28;102129;-71
2023/04/13 05:03:52;;;;;;;;;45.00;39.00;;;;;3.99;100.00;97251.97;4853884;28;101815;-70
2023/04/13 05:06:20;;;;;;;;;45.50;36.50;;;;;4.12;100.00;97257.44;4848754;28;107788;-70
2023/04/13 05:08:47;;;;;;;;;33.75;28.00;;;;;4.16;100.00;97257.88;4851417;28;101783;-70
2023/04/13 05:11:14;;;;;;;;;45.25;31.75;;;;;4.11;99.16;97247.75;4854487;28;101603;-70
2023/04/13 05:13:41;;;;;;;;;35.00;31.25;;;;;4.18;98.66;97264.69;4856297;28;101587;-70
2023/04/13 05:16:09;;;;;;;;;32.50;24.00;;;;;4.22;98.83;97257.94;4844344;28;107854;-70
2023/04/13 05:18:47;;;;;;;;;30.50;27.75;;;;;4.26;98.46;97269.06;4849786;28;101836;-70
2023/04/13 05:21:14;;;;;;;;;21.50;19.50;;;;;4.19;97.56;97254.81;4848261;28;101928;-70
2023/04/13 05:23:42;;;;;;;;;29.75;25.50;;;;;4.31;98.68;97274.66;4855122;28;101717;-70
2023/04/13 05:26:11;;;;;;;;;24.25;20.75;;;;;4.37;98.04;97269.34;4850304;28;103254;-70
2023/04/13 05:28:38;;;;;;;;;28.25;20.00;;;;;4.44;97.33;97282.78;4850784;28;102107;-70
2023/04/13 05:31:07;;;;;;;;;24.50;21.00;;;;;4.54;96.60;97269.06;4850532;28;102185;-70
2023/04/13 05:33:34;;;;;;;;;24.75;18.25;;;;;4.62;96.28;97282.28;4853177;28;101894;-70
2023/04/13 05:36:02;;;;;;;;;23.25;21.50;;;;;4.68;95.99;97274.31;4852533;28;103367;-70
2023/04/13 05:38:29;;;;;;;;;31.50;27.25;;;;;4.71;95.43;97278.44;4848127;28;101645;-70
2023/04/13 05:40:57;;;;;;;;;38.25;29.75;;;;;4.83;95.13;97282.22;4849880;28;101644;-71
2023/04/13 05:43:25;;;;;;;;;24.25;22.25;;;;;5.03;94.92;97271.63;4853669;28;101784;-71
2023/04/13 05:45:52;;;;;;;;;34.50;28.75;;;;;5.33;94.78;97272.97;4852381;28;103347;-70
2023/04/13 05:48:20;;;;;;;;;34.00;28.25;;;;;5.59;95.35;97283.78;4848715;28;101734;-70
2023/04/13 05:50:47;;;;;;;;;37.00;34.00;;;;;6.02;92.47;97273.59;4850821;28;101882;-70
2023/04/13 05:53:14;;;;;;;;;36.00;33.25;;;;;6.52;89.46;97269.47;4852152;28;107296;-70
2023/04/13 05:55:41;;;;;;;;;23.25;22.25;;;;;6.89;86.91;97267.94;4851497;28;103552;-70
2023/04/13 05:58:09;;;;;;;;;38.75;32.25;;;;;6.98;86.11;97247.06;4846070;28;101752;-69
2023/04/13 06:00:37;;;;;;;;;45.25;38.50;;;;;7.39;87.31;97244.81;4847174;28;101627;-69
2023/04/13 06:03:06;;;;;;;;;32.75;26.75;;;;;7.83;83.89;97262.81;4855762;28;101644;-70
2023/04/13 06:05:35;;;;;;;;;49.25;38.75;;;;;7.81;84.94;97272.13;4852104;28;103676;-70
2023/04/13 06:08:02;;;;;;;;;41.75;37.25;;;;;8.39;83.76;97267.41;4849641;28;101522;-70
2023/04/13 06:10:30;;;;;;;;;35.50;33.75;;;;;8.52;82.24;97261.91;4846404;28;101759;-70
2023/04/13 06:12:57;;;;;;;;;39.25;34.50;;;;;8.76;82.95;97271.84;4850037;28;101664;-70
2023/04/13 06:15:24;;;;;;;;;29.50;27.75;;;;;8.79;80.14;97279.47;4849145;28;103390;-70
2023/04/13 06:17:54;;;;;;;;;45.75;39.50;;;;;8.66;82.43;97276.91;4854319;28;101671;-70
2023/04/13 06:20:21;;;;;;;;;44.75;35.75;;;;;8.90;82.56;97276.06;4844695;28;101955;-70
2023/04/13 06:22:48;;;;;;;;;32.75;31.00;;;;;8.91;79.29;97275.03;4854347;28;101649;-70
2023/04/13 06:25:15;;;;;;;;;38.75;33.50;;;;;9.06;80.89;97296.22;4850623;28;103374;-70
2023/04/13 06:27:42;;;;;;;;;37.25;34.75;;;;;9.13;79.62;97270.00;4851699;28;101697;-71
2023/04/13 06:30:10;;;;;;;;;27.25;25.00;;;;;9.41;81.04;97289.16;4846268;28;101612;-70
2023/04/13 06:32:37;;;;;;;;;29.25;23.00;;;;;9.53;76.02;97280.31;4850986;28;101948;-70
2023/04/13 06:35:05;;;;;;;;;26.00;23.50;;;;;9.71;76.01;97286.53;4850042;28;104212;-70
2023/04/13 06:37:35;;;;;;;;;15.75;15.00;;;;;9.85;76.76;97290.72;4850116;28;102374;-70
2023/04/13 06:40:11;;;;;;;;;15.25;14.75;;;;;10.06;74.86;97283.97;4844379;28;102740;-70
2023/04/13 06:42:40;;;;;;;;;21.75;17.50;;;;;10.24;74.96;97288.50;4846551;28;101921;-70
2023/04/13 06:45:11;;;;;;;;;15.25;13.25;;;;;10.47;73.40;97288.56;4847885;28;103481;-70
2023/04/13 06:47:42;;;;;;;;;13.75;9.25;;;;;10.63;69.57;97290.56;4849943;28;101912;-70
2023/04/13 06:50:12;;;;;;;;;12.75;11.75;;;;;10.89;69.73;97291.19;4845798;28;101693;-70
2023/04/13 06:52:44;;;;;;;;;10.25;9.00;;;;;11.11;67.10;97289.53;4849855;28;101909;-70
2023/04/13 06:55:12;;;;;;;;;10.25;10.00;;;;;11.36;64.18;97287.38;4849943;28;103386;-70
2023/04/13 06:57:40;;;;;;;;;13.00;12.00;;;;;11.66;63.01;97289.09;4852101;28;101650;-70
2023/04/13 07:00:09;;;;;;;;;9.75;9.00;;;;;11.96;64.89;97287.84;4844464;28;101604;-70
2023/04/13 07:02:56;;;;;;;;;14.50;11.00;;;;;12.14;61.56;97281.41;4848475;28;102645;-70
2023/04/13 07:05:24;;;;;;;;;8.00;7.25;;;;;12.22;60.81;97285.59;4848252;28;103460;-71
2023/04/13 07:07:51;;;;;;;;;9.50;9.50;;;;;12.24;62.87;97273.47;4852680;28;101792;-70
2023/04/13 07:10:18;;;;;;;;;11.00;9.00;;;;;12.01;58.36;97277.09;4846673;28;101823;-70
2023/04/13 07:12:45;;;;;;;;;10.50;8.50;;;;;12.25;61.76;97279.69;4847153;28;101952;-70
2023/04/13 07:15:12;;;;;;;;;16.00;14.75;;;;;12.45;59.79;97274.63;4851060;28;103804;-70
2023/04/13 07:17:39;;;;;;;;;18.75;15.75;;;;;12.06;60.63;97281.78;4848147;28;102189;-70
2023/04/13 07:20:07;;;;;;;;;16.00;15.00;;;;;12.12;56.77;97283.50;4853043;28;101577;-70
2023/04/13 07:22:34;;;;;;;;;14.00;12.00;;;;;12.31;59.19;97287.66;4847783;28;101650;-70
2023/04/13 07:25:01;;;;;;;;;8.50;8.50;;;;;12.52;58.50;97270.69;4510675;28;10001443;-71
2023/04/13 07:27:28;;;;;;;;;8.00;8.00;;;;;12.79;58.77;97287.13;4850988;28;101914;-70
2023/04/13 07:29:55;;;;;;;;;8.00;7.00;;;;;12.75;56.50;97275.13;4853700;28;101592;-71
2023/04/13 07:32:22;;;;;;;;;7.75;7.00;;;;;12.84;58.63;97283.66;4847521;28;101640;-70
2023/04/13 07:35:00;;;;;;;;;5.00;5.00;;;;;12.97;58.85;97278.72;4848511;28;102034;-71
2023/04/13 07:37:28;;;;;;;;;7.00;7.00;;;;;13.01;57.27;97286.38;4846047;28;103413;-71
2023/04/13 07:39:55;;;;;;;;;6.00;4.50;;;;;12.89;58.06;97245.75;4851840;28;101554;-71
2023/04/13 07:42:24;;;;;;;;;4.25;3.00;;;;;13.19;57.63;97280.72;4849909;28;101676;-70
2023/04/13 07:44:54;;;;;;;;;3.50;3.50;;;;;13.22;57.59;97283.75;4863781;28;101670;-70
2023/04/13 07:47:21;;;;;;;;;4.00;4.00;;;;;13.23;53.27;97282.69;4850342;28;107877;-70
2023/04/13 07:49:48;;;;;;;;;8.00;6.75;;;;;13.16;56.33;97273.88;4851482;28;101769;-70
2023/04/13 07:52:15;;;;;;;;;6.50;6.50;;;;;13.28;54.09;97280.00;4848508;28;101895;-70
2023/04/13 07:54:42;;;;;;;;;3.50;3.50;;;;;13.33;52.03;97279.25;4844243;28;101711;-71
2023/04/13 07:57:09;;;;;;;;;5.75;5.25;;;;;13.55;55.31;97273.88;4849571;28;103142;-70
2023/04/13 07:59:36;;;;;;;;;4.00;3.00;;;;;13.62;49.62;97266.34;4853039;28;101816;-70
2023/04/13 08:02:04;;;;;;;;;6.50;5.25;;;;;13.95;52.40;97279.78;4851561;28;102092;-70
2023/04/13 08:04:32;;;;;;;;;3.00;3.00;;;;;14.12;48.81;97276.97;4844580;28;101588;-70
2023/04/13 08:07:03;;;;;;;;;2.00;2.00;;;;;14.21;48.75;97273.53;4848278;28;103594;-70
2023/04/13 08:09:41;;;;;;;;;4.50;2.75;;;;;14.08;48.24;97241.34;4853580;28;101571;-69
2023/04/13 08:12:08;;;;;;;;;3.00;3.00;;;;;14.39;47.60;97285.16;4851494;28;102141;-70
2023/04/13 08:14:36;;;;;;;;;3.00;2.00;;;;;14.42;50.20;97273.75;4851708;28;101977;-71
2023/04/13 08:17:04;;;;;;;;;1.33;1.00;;;;;14.41;46.15;97277.56;4847870;28;103347;-70
2023/04/13 08:19:32;;;;;;;;;2.00;2.00;;;;;14.03;46.67;97286.66;4852922;28;101972;-71
2023/04/13 08:21:59;;;;;;;;;4.50;3.00;;;;;14.07;49.52;97269.59;4852292;28;101626;-71
2023/04/13 08:24:27;;;;;;;;;2.00;2.00;;;;;14.38;48.33;97284.34;4846770;28;101812;-70
2023/04/13 08:26:57;;;;;;;;;1.00;1.00;;;;;14.65;49.00;97284.31;4851384;28;103401;-71
2023/04/13 08:29:25;;;;;;;;;3.33;3.00;;;;;14.25;45.26;97284.72;4851546;28;101720;-71
2023/04/13 08:31:52;;;;;;;;;4.75;4.75;;;;;14.15;48.81;97285.44;4854800;28;102037;-70
2023/04/13 08:34:19;;;;;;;;;4.00;4.00;;;;;14.57;49.36;97288.31;4852450;28;101758;-70
2023/04/13 08:36:46;;;;;;;;;4.00;4.00;;;;;14.81;45.67;97288.81;4845250;28;103640;-71
2023/04/13 08:39:13;;;;;;;;;3.67;3.00;;;;;14.70;44.61;97281.63;4847808;28;104677;-70
2023/04/13 08:41:45;;;;;;;;;4.00;3.00;;;;;14.86;44.87;97297.00;4852956;28;101936;-70
2023/04/13 08:44:13;;;;;;;;;2.00;2.00;;;;;14.99;43.90;97293.84;4850649;28;101706;-71
2023/04/13 08:46:43;;;;;;;;;2.00;2.00;;;;;14.90;45.15;97291.88;4842893;28;103379;-70
2023/04/13 08:49:11;;;;;;;;;3.00;3.00;;;;;14.70;44.50;97289.78;4850423;28;101638;-71
2023/04/13 08:51:40;;;;;;;;;2.00;2.00;;;;;14.72;45.29;97279.47;4852939;28;101552;-70
2023/04/13 08:54:07;;;;;;;;;5.00;4.67;;;;;14.50;47.11;97286.91;4856344;28;101951;-70
2023/04/13 08:56:38;;;;;;;;;3.00;2.00;;;;;14.55;48.02;97286.94;4849449;28;103328;-71
2023/04/13 08:59:14;;;;;;;;;2.00;2.00;;;;;14.74;47.25;97286.28;4850729;28;102018;-70
2023/04/13 09:01:44;;;;;;;;;5.67;4.67;;;;;14.77;48.34;97287.66;4850266;28;101943;-71
2023/04/13 09:04:15;;;;;;;;;3.67;2.67;;;;;15.03;48.02;97292.25;4855507;28;101581;-70
2023/04/13 09:06:46;;;;;;;;;3.00;2.00;;;;;15.21;47.65;97282.84;4849451;28;103510;-70
2023/04/13 09:09:14;;;;;;;;;4.67;4.00;;;;;15.40;46.90;97291.41;4849811;28;101914;-71
2023/04/13 09:11:42;;;;;;;;;3.00;2.00;;;;;15.73;44.72;97285.59;4852653;28;101704;-71
2023/04/13 09:14:09;;;;;;;;;3.00;3.00;;;;;15.89;44.10;97284.59;4853564;28;101692;-71
2023/04/13 09:16:40;;;;;;;;;6.00;5.00;;;;;15.29;42.64;97290.50;4850152;28;103491;-71
2023/04/13 09:19:09;;;;;;;;;8.00;6.00;;;;;15.38;44.93;97288.09;4844062;28;101640;-70
2023/04/13 09:21:40;;;;;;;;;5.67;5.00;;;;;15.41;44.71;97288.38;4852125;28;101638;-71
2023/04/13 09:24:08;;;;;;;;;4.00;4.00;;;;;15.43;45.88;97288.13;4852806;28;101720;-70
2023/04/13 09:26:48;;;;;;;;;3.00;2.00;;;;;15.59;43.66;97279.81;4852801;28;102559;-70
2023/04/13 09:29:18;;;;;;;;;6.67;6.00;;;;;14.93;46.23;97294.88;4847080;28;104074;-71
2023/04/13 09:31:46;;;;;;;;;5.00;4.00;;;;;15.19;45.08;97295.88;4849729;28;101774;-71
2023/04/13 09:34:24;;;;;;;;;10.00;9.33;;;;;14.58;46.26;97289.97;4851065;28;102685;-71
2023/04/13 09:36:51;;;;;;;;;7.00;5.00;;;;;15.02;47.34;97296.03;4853901;28;107872;-71
2023/04/13 09:39:26;;;;;;;;;9.00;7.67;;;;;14.93;46.30;97284.00;4845056;28;101920;-70
2023/04/13 09:41:54;;;;;;;;;4.33;4.33;;;;;15.41;45.29;97295.75;4849036;28;101816;-71
2023/04/13 09:44:29;;;;;;;;;6.33;5.00;;;;;15.38;46.34;97288.09;4853673;28;101838;-70
2023/04/13 09:46:57;;;;;;;;;6.00;5.00;;;;;15.76;46.99;97260.50;4851460;28;108056;-71
2023/04/13 09:49:25;;;;;;;;;5.00;5.00;;;;;16.17;48.50;97282.47;4842465;28;103819;-72
2023/04/13 09:51:53;;;;;;;;;5.33;5.00;;;;;16.37;44.32;97257.97;4849086;28;102737;-71
2023/04/13 09:54:21;;;;;;;;;14.00;12.00;;;;;15.52;45.34;97287.41;4853294;28;101677;-71
2023/04/13 09:56:53;;;;;;;;;10.33;9.00;;;;;15.66;46.16;97276.84;4853873;28;103567;-71
2023/04/13 09:59:24;;;;;;;;;8.33;8.00;;;;;15.93;46.19;97272.06;4842412;28;102207;-71
2023/04/13 10:01:52;;;;;;;;;7.33;6.67;;;;;15.97;45.42;97259.53;4848138;28;102045;-71
2023/04/13 10:04:20;;;;;;;;;8.00;7.67;;;;;15.51;46.08;97212.19;4851946;28;102650;-71
2023/04/13 10:06:47;;;;;;;;;5.67;5.67;;;;;16.29;46.91;97266.69;4853344;28;103346;-71
2023/04/13 10:09:14;;;;;;;;;7.00;6.00;;;;;16.63;43.72;97267.03;4850847;28;101579;-71
2023/04/13 10:11:48;;;;;;;;;10.00;9.00;;;;;16.64;44.08;97265.94;4847119;28;101964;-71
2023/04/13 10:14:21;;;;;;;;;7.00;7.00;;;;;16.92;44.60;97266.22;4850439;28;101776;-70
2023/04/13 10:16:54;;;;;;;;;5.00;4.00;;;;;16.75;43.01;97262.13;4851861;28;103102;-70
2023/04/13 10:19:26;;;;;;;;;6.33;6.00;;;;;16.82;46.07;97271.69;4850778;28;101780;-70
2023/04/13 10:21:55;;;;;;;;;2.00;2.00;;;;;16.89;44.21;97260.47;4845207;28;101606;-70
2023/04/13 10:24:22;;;;;;;;;12.33;11.00;;;;;15.74;44.54;97259.97;4852369;28;101781;-71
2023/04/13 10:26:54;;;;;;;;;7.67;7.33;;;;;16.13;46.38;97263.09;4850003;28;103406;-70
2023/04/13 10:29:29;;;;;;;;;6.00;5.00;;;;;16.29;44.79;97258.50;4852769;28;101680;-71
2023/04/13 10:32:01;;;;;;;;;5.33;5.33;;;;;16.52;46.91;97255.28;4841091;28;101658;-71
2023/04/13 10:34:30;;;;;;;;;10.33;8.67;;;;;16.22;45.97;97260.66;4851238;28;101736;-70
2023/04/13 10:37:02;;;;;;;;;5.33;5.33;;;;;16.55;44.77;97260.16;4852309;28;103388;-71
2023/04/13 10:39:32;;;;;;;;;6.00;4.00;;;;;16.75;45.82;97254.72;4852083;28;101706;-71
2023/04/13 10:42:03;;;;;;;;;6.33;5.00;;;;;17.07;45.49;97251.72;4841541;28;101502;-71
2023/04/13 10:44:44;;;;;;;;;13.33;10.67;;;;;16.18;45.01;97232.28;4849499;28;102610;-71
2023/04/13 10:47:19;;;;;;;;;14.00;13.67;;;;;15.84;45.53;97243.66;4848986;28;103382;-71
2023/04/13 10:49:48;;;;;;;;;12.25;11.00;;;;;15.80;44.84;97248.03;4852068;28;101796;-71
2023/04/13 10:52:15;;;;;;;;;12.00;12.00;;;;;15.84;45.67;97234.66;4847306;28;101725;-71
2023/04/13 10:54:43;;;;;;;;;14.00;13.00;;;;;15.92;46.91;97248.59;4849080;28;101620;-71
2023/04/13 10:57:11;;;;;;;;;11.33;11.00;;;;;16.15;49.11;97249.19;4848823;28;103580;-69
2023/04/13 10:59:39;;;;;;;;;11.67;9.67;;;;;16.60;47.32;97240.28;4852213;28;101989;-71
2023/04/13 11:02:30;;;;;;;;;11.67;10.00;;;;;16.57;46.11;97247.06;4847672;28;101767;-71
2023/04/13 11:04:59;;;;;;;;;9.67;9.33;;;;;16.76;46.16;97242.72;4845730;28;101658;-71
2023/04/13 11:07:27;;;;;;;;;9.00;8.00;;;;;16.68;44.47;97248.75;4846769;28;103550;-71
2023/04/13 11:09:57;;;;;;;;;9.00;6.67;;;;;16.98;45.60;97247.06;4854540;28;101771;-71
2023/04/13 11:12:27;;;;;;;;;5.00;4.33;;;;;16.76;45.06;97245.47;4848475;28;102597;-71
2023/04/13 11:14:54;;;;;;;;;3.00;2.00;;;;;17.03;46.04;97255.25;4851434;28;101676;-71
2023/04/13 11:17:21;;;;;;;;;3.33;2.00;;;;;16.98;44.42;97253.34;4851001;28;108277;-71
2023/04/13 11:19:50;;;;;;;;;2.00;2.00;;;;;16.87;44.67;97247.09;4851467;28;101690;-71
2023/04/13 11:22:18;;;;;;;;;3.00;3.00;;;;;16.85;44.96;97246.53;4849388;28;101685;-71
2023/04/13 11:24:49;;;;;;;;;4.00;4.00;;;;;17.02;44.21;97242.72;4848085;28;106754;-71
2023/04/13 11:27:23;;;;;;;;;4.00;4.00;;;;;17.02;45.00;97242.72;4847294;28;103332;-71
2023/04/13 11:30:04;;;;;;;;;4.67;3.33;;;;;16.95;44.06;97249.28;4850680;28;101646;-70